Air Quality Table

TIMESTAMP NO2 SO2 O3 PM10 PM2.5 TEMP HUM AIRPRES WS WD NO
2022-01-21 01:00 26.97 µg/m3 1.57 µg/m3 59.35 µg/m3 25.39 µg/m3 3.35 µg/m3 12.09 °C 75.16 % 1,017.28 mbar 1.48 m/s 284.73 Deg 2.14 µg/m3
2022-01-20 17:00 17.07 µg/m3 1.35 µg/m3 70.27 µg/m3 17.56 µg/m3 8.22 µg/m3 14.23 °C 70.66 % 1,018.76 mbar 1.92 m/s 273.02 Deg 3.11 µg/m3
2022-01-20 09:00 26.52 µg/m3 1.48 µg/m3 58.96 µg/m3 9.42 µg/m3 7.37 µg/m3 12.02 °C 87.6 % 1,020.91 mbar 1.58 m/s 216.09 Deg 4.4 µg/m3
2022-01-20 01:00 10.8 µg/m3 1.34 µg/m3 69.89 µg/m3 12.66 µg/m3 4.95 µg/m3 12.34 °C 87.1 % 1,023.00 mbar 1.62 m/s 191.23 Deg 0.3 µg/m3
2022-01-19 17:00 4 µg/m3 1.48 µg/m3 80.73 µg/m3 16.09 µg/m3 12.62 µg/m3 14.13 °C 69.33 % 1,023.83 mbar 2.91 m/s 153.73 Deg 0.6 µg/m3
2022-01-19 09:00 13.86 µg/m3 1.54 µg/m3 58.27 µg/m3 17.73 µg/m3 8.31 µg/m3 11.85 °C 78.86 % 1,024.02 mbar 1.5 m/s 230.85 Deg 1.13 µg/m3
2022-01-19 01:00 43.25 µg/m3 1.72 µg/m3 37.79 µg/m3 36.32 µg/m3 11.71 µg/m3 11.62 °C 77.77 % 1,024.33 mbar 1.63 m/s 303.12 Deg 6.04 µg/m3
2022-01-18 17:00 18.1 µg/m3 1.48 µg/m3 72.95 µg/m3 26.28 µg/m3 5.83 µg/m3 14.05 °C 66.68 % 1,022.70 mbar 3.08 m/s 207.5 Deg 5.83 µg/m3
2022-01-18 09:00 32.09 µg/m3 1.6 µg/m3 43.9 µg/m3 17.99 µg/m3 8.84 µg/m3 11.1 °C 85.64 % 1,020.67 mbar 1.76 m/s 314.33 Deg 7.89 µg/m3
2022-01-18 01:00 16.26 µg/m3 1.43 µg/m3 67.5 µg/m3 23.38 µg/m3 0.45 µg/m3 12.49 °C 82.07 % 1,019.61 mbar 2 m/s 320.42 Deg 1.2 µg/m3
2022-01-17 17:00 22.94 µg/m3 1.59 µg/m3 67.97 µg/m3 28.24 µg/m3 0 µg/m3 14.34 °C 73.15 % 1,019.42 mbar 3.01 m/s 316.7 Deg 7.3 µg/m3
2022-01-17 09:00 32.26 µg/m3 1.61 µg/m3 40.45 µg/m3 14.36 µg/m3 µg/m3 10.9 °C 93.52 % 1,020.26 mbar 1.44 m/s 310.82 Deg 10.14 µg/m3
2022-01-17 01:00 36.06 µg/m3 1.46 µg/m3 36.29 µg/m3 37.33 µg/m3 µg/m3 11.71 °C 93.08 % 1,020.20 mbar 1.41 m/s 300.92 Deg 4.02 µg/m3
2022-01-16 17:00 13.22 µg/m3 1.43 µg/m3 70.72 µg/m3 20.17 µg/m3 µg/m3 14.97 °C 77.42 % 1,018.70 mbar 1.46 m/s 190.07 Deg 2.13 µg/m3
2022-01-16 09:00 16.91 µg/m3 1.58 µg/m3 58.61 µg/m3 15.57 µg/m3 µg/m3 11.61 °C 82.67 % 1,017.15 mbar 1.69 m/s 306.53 Deg 2.28 µg/m3
2022-01-16 01:00 47.26 µg/m3 1.69 µg/m3 33.89 µg/m3 50.69 µg/m3 µg/m3 10.91 °C 81.4 % 1,015.97 mbar 1.43 m/s 313.78 Deg 5.46 µg/m3
2022-01-15 17:00 19.98 µg/m3 1.63 µg/m3 71.75 µg/m3 23.87 µg/m3 µg/m3 13.28 °C 66.9 % 1,015.60 mbar 2.47 m/s 183.05 Deg 6.3 µg/m3
2022-01-15 09:00 33.49 µg/m3 1.81 µg/m3 41.79 µg/m3 14.41 µg/m3 µg/m3 8.81 °C 77.46 % 1,017.24 mbar 1.67 m/s 298.85 Deg 10.31 µg/m3
2022-01-15 01:00 33.76 µg/m3 1.79 µg/m3 48.81 µg/m3 33.21 µg/m3 µg/m3 9.95 °C 68.03 % 1,019.72 mbar 1.67 m/s 198.79 Deg 3.39 µg/m3
2022-01-14 17:00 11.21 µg/m3 1.57 µg/m3 76.43 µg/m3 24.25 µg/m3 µg/m3 12.52 °C 63.94 % 1,020.35 mbar 3.39 m/s 53.84 Deg 2.18 µg/m3

It is to be noted that the data is provisional and subject to quality assurance procedures. For validated data kindly refer your request to contact.air@era.org.mt